createdAt,value
2023-01-08T00:01:12.633Z,1.80
2023-01-08T00:03:41.400Z,1.60
2023-01-08T00:06:12.410Z,1.58
2023-01-08T00:08:40.607Z,1.77
2023-01-08T00:11:10.356Z,1.60
2023-01-08T00:13:38.926Z,1.40
2023-01-08T00:16:09.734Z,1.55
2023-01-08T00:18:38.045Z,1.50
2023-01-08T00:21:07.481Z,1.75
2023-01-08T00:23:37.085Z,1.60
2023-01-08T00:26:06.861Z,1.30
2023-01-08T00:28:37.845Z,1.45
2023-01-08T00:31:07.209Z,1.42
2023-01-08T00:33:36.122Z,1.40
2023-01-08T00:36:08.865Z,1.23
2023-01-08T00:38:37.107Z,1.88
2023-01-08T00:41:06.461Z,1.47
2023-01-08T00:43:36.339Z,1.60
2023-01-08T00:46:04.655Z,1.50
2023-01-08T00:48:33.539Z,1.25
2023-01-08T00:51:03.404Z,1.10
2023-01-08T00:53:31.709Z,1.20
2023-01-08T00:56:04.657Z,1.85
2023-01-08T00:58:33.318Z,1.50
2023-01-08T01:01:03.520Z,1.00
2023-01-08T01:03:32.915Z,1.30
2023-01-08T01:06:05.022Z,1.20
2023-01-08T01:08:33.326Z,1.30
2023-01-08T01:11:01.621Z,1.60
2023-01-08T01:13:29.807Z,1.33
2023-01-08T01:15:59.116Z,1.03
2023-01-08T01:18:29.295Z,1.30
2023-01-08T01:20:57.538Z,1.10
2023-01-08T01:23:25.775Z,1.35
2023-01-08T01:25:54.545Z,1.30
2023-01-08T01:28:22.859Z,1.00
2023-01-08T01:30:56.361Z,1.20
2023-01-08T01:33:25.138Z,1.20
2023-01-08T01:36:03.327Z,1.55
2023-01-08T01:38:31.852Z,1.10
2023-01-08T01:41:00.297Z,1.30
2023-01-08T01:43:39.355Z,1.50
2023-01-08T01:46:21.169Z,1.30
2023-01-08T01:48:52.593Z,1.35
2023-01-08T01:51:22.774Z,1.13
2023-01-08T01:53:51.137Z,1.25
2023-01-08T01:56:19.536Z,1.35
2023-01-08T01:58:47.777Z,1.20
2023-01-08T02:01:17.284Z,1.53
2023-01-08T02:03:45.633Z,1.38
2023-01-08T02:06:23.387Z,1.10
2023-01-08T02:09:01.159Z,1.30
2023-01-08T02:11:40.106Z,1.02
2023-01-08T02:14:14.220Z,1.10
2023-01-08T02:16:49.256Z,1.00
2023-01-08T02:19:29.105Z,1.00
2023-01-08T02:22:07.089Z,1.13
2023-01-08T02:24:47.938Z,1.17
2023-01-08T02:27:18.613Z,1.00
2023-01-08T02:29:48.054Z,0.82
2023-01-08T02:32:16.401Z,1.20
2023-01-08T02:34:44.669Z,0.93
2023-01-08T02:37:12.970Z,1.00
2023-01-08T02:40:03.173Z,0.93
2023-01-08T02:42:41.625Z,1.08
2023-01-08T02:45:22.461Z,1.13
2023-01-08T02:47:55.735Z,1.10
2023-01-08T02:50:30.036Z,1.40
2023-01-08T02:53:05.727Z,1.50
2023-01-08T02:55:36.278Z,1.30
2023-01-08T02:58:06.668Z,1.10
2023-01-08T03:00:35.714Z,1.30
2023-01-08T03:03:09.784Z,1.20
2023-01-08T03:05:41.445Z,1.00
2023-01-08T03:08:11.185Z,1.27
2023-01-08T03:10:42.553Z,1.10
2023-01-08T03:13:16.862Z,1.30
2023-01-08T03:15:49.649Z,1.30
2023-01-08T03:18:22.139Z,1.20
2023-01-08T03:20:51.622Z,1.20
2023-01-08T03:23:23.759Z,1.10
2023-01-08T03:25:51.965Z,0.90
2023-01-08T03:28:30.193Z,1.13
2023-01-08T03:31:00.308Z,1.30
2023-01-08T03:33:31.122Z,1.10
2023-01-08T03:36:01.949Z,1.00
2023-01-08T03:38:35.739Z,1.30
2023-01-08T03:41:06.675Z,1.13
2023-01-08T03:43:36.422Z,1.20
2023-01-08T03:46:08.876Z,1.40
2023-01-08T03:48:39.059Z,1.38
2023-01-08T03:51:09.920Z,1.42
2023-01-08T03:53:38.263Z,1.25
2023-01-08T03:56:07.243Z,1.20
2023-01-08T03:58:36.946Z,1.00
2023-01-08T04:01:05.275Z,1.20
2023-01-08T04:03:33.494Z,1.10
2023-01-08T04:06:01.723Z,1.30
2023-01-08T04:08:29.955Z,1.30
2023-01-08T04:10:58.140Z,1.10
2023-01-08T04:13:26.352Z,1.23
2023-01-08T04:15:56.047Z,1.10
2023-01-08T04:18:24.333Z,0.90
2023-01-08T04:20:53.419Z,1.20
2023-01-08T04:23:21.646Z,1.50
2023-01-08T04:25:49.984Z,1.20
2023-01-08T04:28:18.207Z,1.30
2023-01-08T04:30:46.469Z,1.30
2023-01-08T04:33:16.129Z,1.10
2023-01-08T04:35:44.446Z,1.00
2023-01-08T04:38:12.647Z,1.30
2023-01-08T04:40:40.832Z,1.17
2023-01-08T04:43:09.078Z,1.20
2023-01-08T04:45:37.448Z,1.08
2023-01-08T04:48:06.749Z,1.20
2023-01-08T04:50:36.374Z,1.30
2023-01-08T04:53:04.597Z,1.00
2023-01-08T04:55:32.840Z,1.10
2023-01-08T04:58:00.979Z,1.17
2023-01-08T05:00:29.336Z,1.30
2023-01-08T05:02:57.588Z,1.10
2023-01-08T05:05:25.847Z,0.90
2023-01-08T05:07:55.413Z,1.20
2023-01-08T05:10:23.658Z,1.30
2023-01-08T05:12:51.907Z,0.80
2023-01-08T05:15:20.125Z,0.90
2023-01-08T05:17:48.365Z,1.00
2023-01-08T05:20:18.933Z,1.15
2023-01-08T05:22:49.529Z,0.85
2023-01-08T05:25:19.511Z,1.00
2023-01-08T05:27:48.222Z,0.85
2023-01-08T05:30:16.651Z,0.90
2023-01-08T05:32:44.866Z,0.70
2023-01-08T05:35:13.262Z,1.00
2023-01-08T05:37:41.449Z,1.00
2023-01-08T05:40:10.664Z,0.90
2023-01-08T05:42:40.229Z,0.77
2023-01-08T05:45:09.797Z,1.10
2023-01-08T05:47:38.228Z,0.90
2023-01-08T05:50:07.310Z,0.80
2023-01-08T05:52:35.667Z,0.95
2023-01-08T05:55:03.860Z,0.90
2023-01-08T05:57:32.153Z,0.70
2023-01-08T06:00:01.783Z,0.82
2023-01-08T06:02:39.886Z,0.85
2023-01-08T06:05:08.656Z,0.90
2023-01-08T06:07:36.792Z,1.00
2023-01-08T06:10:05.532Z,0.90
2023-01-08T06:12:33.856Z,0.93
2023-01-08T06:15:03.675Z,0.90
2023-01-08T06:17:31.937Z,0.70
2023-01-08T06:20:00.212Z,0.70
2023-01-08T06:22:28.785Z,0.70
2023-01-08T06:24:57.041Z,0.80
2023-01-08T06:27:25.222Z,0.70
2023-01-08T06:29:53.446Z,0.70
2023-01-08T06:32:23.082Z,0.80
2023-01-08T06:34:51.293Z,0.80
2023-01-08T06:37:19.549Z,0.73
2023-01-08T06:39:47.799Z,0.90
2023-01-08T06:42:15.994Z,0.80
2023-01-08T06:44:44.217Z,0.90
2023-01-08T06:47:12.370Z,0.60
2023-01-08T06:49:41.986Z,0.70
2023-01-08T06:52:10.246Z,0.70
2023-01-08T06:54:38.445Z,0.80
2023-01-08T06:57:06.644Z,0.70
2023-01-08T06:59:34.815Z,0.70
2023-01-08T07:02:03.250Z,0.50
2023-01-08T07:04:31.503Z,0.70
2023-01-08T07:07:01.075Z,0.80
2023-01-08T07:09:29.261Z,0.80
2023-01-08T07:11:57.491Z,0.80
2023-01-08T07:14:25.745Z,0.80
2023-01-08T07:16:53.979Z,0.70
2023-01-08T07:19:22.168Z,0.60
2023-01-08T07:21:50.317Z,0.80
2023-01-08T07:24:19.895Z,0.70
2023-01-08T07:26:48.053Z,0.90
2023-01-08T07:29:16.282Z,0.60
2023-01-08T07:31:44.573Z,0.80
2023-01-08T07:34:15.175Z,0.60
2023-01-08T07:36:43.573Z,0.70
2023-01-08T07:39:11.778Z,0.60
2023-01-08T07:41:41.359Z,0.73
2023-01-08T07:44:09.713Z,1.00
2023-01-08T07:46:37.956Z,0.90
2023-01-08T07:49:06.485Z,0.70
2023-01-08T07:51:34.703Z,0.55
2023-01-08T07:54:03.274Z,0.70
2023-01-08T07:56:31.492Z,0.70
2023-01-08T07:59:01.081Z,0.60
2023-01-08T08:01:29.438Z,0.60
2023-01-08T08:03:57.681Z,0.60
2023-01-08T08:06:25.971Z,0.80
2023-01-08T08:08:54.173Z,0.70
2023-01-08T08:11:22.370Z,0.60
2023-01-08T08:13:53.039Z,0.70
2023-01-08T08:16:23.518Z,0.60
2023-01-08T08:18:51.742Z,0.60
2023-01-08T08:21:19.946Z,0.80
2023-01-08T08:23:48.193Z,0.70
2023-01-08T08:26:16.360Z,0.60
2023-01-08T08:28:44.689Z,0.70
2023-01-08T08:31:12.968Z,0.70
2023-01-08T08:33:42.726Z,0.50
2023-01-08T08:36:11.077Z,0.50
2023-01-08T08:38:39.932Z,0.80
2023-01-08T08:41:08.351Z,0.70
2023-01-08T08:43:36.554Z,0.60
2023-01-08T08:46:04.848Z,0.60
2023-01-08T08:48:33.069Z,0.70
2023-01-08T08:51:02.779Z,0.57
2023-01-08T08:53:31.014Z,0.70
2023-01-08T08:55:59.683Z,0.90
2023-01-08T08:58:28.004Z,0.70
2023-01-08T09:00:56.203Z,0.77
2023-01-08T09:03:24.486Z,0.70
2023-01-08T09:05:52.729Z,0.70
2023-01-08T09:08:22.430Z,0.80
2023-01-08T09:10:50.638Z,0.73
2023-01-08T09:13:19.324Z,0.70
2023-01-08T09:15:47.527Z,0.90
2023-01-08T09:18:16.141Z,1.03
2023-01-08T09:20:44.442Z,0.80
2023-01-08T09:23:12.612Z,1.20
2023-01-08T09:25:42.203Z,1.00
2023-01-08T09:28:13.191Z,1.00
2023-01-08T09:30:41.799Z,0.90
2023-01-08T09:33:11.552Z,1.02
2023-01-08T09:35:39.801Z,1.50
2023-01-08T09:38:08.067Z,1.20
2023-01-08T09:40:40.565Z,1.10
2023-01-08T09:43:18.368Z,1.70
2023-01-08T09:45:51.129Z,1.20
2023-01-08T09:48:23.685Z,1.52
2023-01-08T09:50:52.181Z,2.47
2023-01-08T09:53:21.045Z,1.40
2023-01-08T09:56:09.076Z,1.38
2023-01-08T09:58:41.724Z,2.10
2023-01-08T10:01:15.538Z,1.60
2023-01-08T10:03:47.227Z,1.48
2023-01-08T10:06:17.000Z,2.10
2023-01-08T10:11:19.943Z,1.40
2023-01-08T10:13:53.336Z,1.35
2023-01-08T10:16:27.938Z,1.40
2023-01-08T10:18:56.303Z,1.50
2023-01-08T10:21:30.811Z,1.30
2023-01-08T10:23:59.039Z,1.50
2023-01-08T10:26:29.912Z,1.70
2023-01-08T10:29:15.001Z,0.90
2023-01-08T10:31:51.590Z,1.10
2023-01-08T10:34:28.378Z,1.40
2023-01-08T10:36:57.304Z,1.17
2023-01-08T10:39:28.050Z,1.63
2023-01-08T10:41:59.728Z,1.20
2023-01-08T10:44:29.461Z,1.10
2023-01-08T10:47:00.935Z,1.00
2023-01-08T10:49:34.185Z,0.90
2023-01-08T10:52:02.739Z,1.00
2023-01-08T10:54:37.324Z,1.10
2023-01-08T10:57:22.125Z,1.00
2023-01-08T10:59:51.809Z,0.80
2023-01-08T11:02:31.905Z,1.08
2023-01-08T11:05:01.413Z,0.60
2023-01-08T11:07:30.216Z,1.30
2023-01-08T11:09:58.472Z,1.50
2023-01-08T11:12:38.914Z,0.90
2023-01-08T11:15:27.190Z,1.00
2023-01-08T11:17:55.502Z,0.90
2023-01-08T11:20:29.097Z,0.90
2023-01-08T11:23:09.682Z,0.80
2023-01-08T11:25:39.753Z,0.80
2023-01-08T11:28:13.972Z,0.70
2023-01-08T11:30:50.473Z,0.90
2023-01-08T11:33:24.030Z,1.02
2023-01-08T11:35:57.636Z,0.80
2023-01-08T11:38:25.963Z,0.90
2023-01-08T11:41:00.590Z,0.80
2023-01-08T11:43:37.612Z,0.80
2023-01-08T11:46:19.891Z,0.85
2023-01-08T11:49:07.091Z,0.80
2023-01-08T11:51:44.557Z,0.70
2023-01-08T11:54:29.925Z,0.70
2023-01-08T11:57:09.585Z,0.98
2023-01-08T11:59:53.668Z,1.00
2023-01-08T12:02:32.295Z,1.00
2023-01-08T12:05:25.129Z,0.70
2023-01-08T12:08:01.093Z,0.70
2023-01-08T12:10:37.932Z,0.90
2023-01-08T12:13:19.736Z,0.75
2023-01-08T12:16:03.099Z,0.90
2023-01-08T12:18:40.754Z,0.80
2023-01-08T12:21:15.543Z,0.70
2023-01-08T12:24:00.619Z,0.77
2023-01-08T12:26:37.002Z,1.10
2023-01-08T12:29:28.204Z,0.90
2023-01-08T12:32:27.396Z,0.70
2023-01-08T12:35:04.549Z,0.80
2023-01-08T12:37:40.281Z,0.60
2023-01-08T12:40:16.363Z,0.93
2023-01-08T12:42:50.213Z,1.08
2023-01-08T12:45:29.071Z,0.90
2023-01-08T12:48:02.490Z,0.80
2023-01-08T12:51:02.709Z,0.60
2023-01-08T12:53:43.886Z,0.70
2023-01-08T12:56:18.063Z,0.50
2023-01-08T12:59:00.633Z,0.60
2023-01-08T13:01:37.812Z,0.70
2023-01-08T13:04:10.372Z,0.70
2023-01-08T13:06:50.596Z,0.77
2023-01-08T13:09:24.899Z,0.80
2023-01-08T13:11:55.167Z,0.82
2023-01-08T13:14:26.211Z,0.70
2023-01-08T13:17:07.001Z,0.80
2023-01-08T13:19:41.836Z,0.70
2023-01-08T13:22:26.038Z,0.60
2023-01-08T13:25:08.695Z,0.50
2023-01-08T13:27:37.090Z,0.60
2023-01-08T13:30:25.962Z,0.50
2023-01-08T13:32:54.240Z,1.40
2023-01-08T13:35:25.213Z,0.80
2023-01-08T13:38:14.652Z,0.60
2023-01-08T13:40:56.658Z,1.10
2023-01-08T13:43:29.929Z,2.22
2023-01-08T13:46:14.360Z,2.00
2023-01-08T13:48:50.790Z,1.30
2023-01-08T13:51:35.125Z,1.20
2023-01-08T13:54:17.305Z,0.80
2023-01-08T13:56:48.674Z,0.90
2023-01-08T13:59:26.625Z,1.00
2023-01-08T14:01:56.098Z,0.90
2023-01-08T14:04:25.092Z,0.88
2023-01-08T14:06:53.319Z,0.70
2023-01-08T14:09:25.066Z,1.00
2023-01-08T14:11:55.738Z,0.60
2023-01-08T14:14:25.684Z,0.77
2023-01-08T14:16:55.524Z,1.00
2023-01-08T14:19:26.651Z,0.80
2023-01-08T14:21:57.039Z,0.80
2023-01-08T14:24:27.368Z,0.75
2023-01-08T14:26:57.114Z,1.00
2023-01-08T14:29:27.693Z,0.82
2023-01-08T14:31:57.297Z,0.90
2023-01-08T14:34:28.357Z,1.23
2023-01-08T14:36:57.287Z,0.90
2023-01-08T14:39:34.357Z,0.90
2023-01-08T14:42:27.730Z,0.90
2023-01-08T14:44:57.039Z,1.10
2023-01-08T14:47:31.194Z,1.00
2023-01-08T14:49:59.595Z,1.08
2023-01-08T14:52:27.945Z,0.80
2023-01-08T14:55:00.889Z,0.90
2023-01-08T14:57:30.046Z,0.70
2023-01-08T14:59:59.734Z,1.27
2023-01-08T15:02:32.534Z,0.80
2023-01-08T15:05:14.419Z,1.10
2023-01-08T15:07:44.787Z,1.48
2023-01-08T15:10:37.407Z,1.10
2023-01-08T15:13:08.461Z,1.00
2023-01-08T15:15:42.755Z,1.27
2023-01-08T15:18:13.799Z,0.88
2023-01-08T15:20:46.254Z,1.20
2023-01-08T15:23:33.378Z,0.90
2023-01-08T15:26:03.113Z,0.90
2023-01-08T15:28:31.369Z,0.90
2023-01-08T15:30:59.602Z,0.70
2023-01-08T15:33:29.002Z,0.70
2023-01-08T15:35:58.252Z,0.90
2023-01-08T15:38:26.489Z,1.03
2023-01-08T15:40:56.039Z,1.10
2023-01-08T15:43:24.649Z,1.10
2023-01-08T15:45:52.852Z,1.30
2023-01-08T15:48:21.093Z,1.30
2023-01-08T15:50:49.403Z,1.50
2023-01-08T15:53:19.726Z,1.55
2023-01-08T15:55:48.081Z,1.00
2023-01-08T15:58:17.090Z,1.10
2023-01-08T16:00:47.701Z,0.82
2023-01-08T16:03:17.258Z,1.00
2023-01-08T16:05:45.715Z,0.90
2023-01-08T16:08:13.957Z,0.73
2023-01-08T16:10:42.173Z,0.70
2023-01-08T16:13:12.200Z,1.30
2023-01-08T16:15:40.945Z,1.30
2023-01-08T16:18:10.778Z,1.63
2023-01-08T16:20:39.712Z,1.63
2023-01-08T16:23:08.165Z,1.40
2023-01-08T16:25:36.541Z,1.10
2023-01-08T16:28:04.776Z,2.20
2023-01-08T16:30:33.084Z,2.30
2023-01-08T16:33:01.274Z,1.80
2023-01-08T16:35:30.885Z,1.60
2023-01-08T16:37:59.098Z,1.45
2023-01-08T16:40:27.308Z,1.50
2023-01-08T16:43:00.824Z,1.40
2023-01-08T16:45:29.144Z,1.05
2023-01-08T16:47:57.381Z,1.10
2023-01-08T16:50:25.589Z,1.30
2023-01-08T16:52:55.288Z,1.08
2023-01-08T16:55:23.521Z,1.00
2023-01-08T16:57:52.980Z,1.58
2023-01-08T17:00:23.693Z,1.20
2023-01-08T17:02:52.426Z,1.08
2023-01-08T17:05:20.661Z,1.02
2023-01-08T17:07:52.382Z,1.10
2023-01-08T17:10:22.913Z,1.30
2023-01-08T17:12:51.213Z,1.50
2023-01-08T17:15:19.498Z,1.90
2023-01-08T17:17:47.742Z,1.40
2023-01-08T17:20:16.451Z,1.30
2023-01-08T17:22:44.751Z,1.52
2023-01-08T17:25:13.033Z,1.30
2023-01-08T17:27:42.820Z,1.40
2023-01-08T17:30:12.895Z,1.40
2023-01-08T17:32:41.280Z,1.60
2023-01-08T17:35:10.128Z,1.27
2023-01-08T17:37:38.380Z,1.30
2023-01-08T17:40:08.036Z,1.10
2023-01-08T17:42:36.295Z,1.60
2023-01-08T17:45:06.917Z,1.40
2023-01-08T17:47:37.285Z,0.90
2023-01-08T17:50:06.769Z,1.13
2023-01-08T17:52:35.104Z,1.10
2023-01-08T17:55:03.308Z,1.40
2023-01-08T17:57:31.654Z,1.23
2023-01-08T18:00:00.864Z,1.38
2023-01-08T18:02:30.598Z,1.10
2023-01-08T18:04:59.174Z,1.40
2023-01-08T18:07:27.398Z,1.20
2023-01-08T18:09:57.206Z,1.00
2023-01-08T18:12:25.442Z,1.10
2023-01-08T18:14:53.591Z,1.10
2023-01-08T18:17:22.114Z,1.50
2023-01-08T18:19:51.774Z,1.55
2023-01-08T18:22:20.021Z,1.30
2023-01-08T18:24:48.371Z,1.40
2023-01-08T18:27:16.516Z,0.90
2023-01-08T18:29:44.750Z,0.88
2023-01-08T18:32:12.949Z,1.00
2023-01-08T18:34:41.179Z,1.02
2023-01-08T18:37:10.808Z,0.88
2023-01-08T18:39:39.145Z,1.20
2023-01-08T18:42:24.643Z,1.40
2023-01-08T18:44:55.186Z,2.00
2023-01-08T18:47:24.161Z,1.70
2023-01-08T18:49:53.268Z,1.92
2023-01-08T18:52:23.674Z,3.10
2023-01-08T18:54:53.182Z,2.42
2023-01-08T18:57:21.503Z,2.20
2023-01-08T18:59:49.940Z,2.30
2023-01-08T19:02:20.657Z,1.67
2023-01-08T19:04:49.833Z,1.80
2023-01-08T19:07:18.860Z,1.20
2023-01-08T19:09:48.480Z,1.10
2023-01-08T19:12:16.714Z,1.40
2023-01-08T19:14:47.001Z,1.23
2023-01-08T19:17:15.577Z,1.40
2023-01-08T19:19:43.869Z,1.30
2023-01-08T19:22:12.242Z,1.30
2023-01-08T19:24:40.415Z,1.40
2023-01-08T19:27:09.999Z,1.50
2023-01-08T19:29:38.250Z,1.40
2023-01-08T19:32:07.612Z,1.40
2023-01-08T19:34:35.967Z,1.20
2023-01-08T19:37:04.265Z,1.40
2023-01-08T19:39:32.508Z,1.73
2023-01-08T19:42:18.754Z,1.50
2023-01-08T19:44:48.356Z,1.52
2023-01-08T19:47:16.979Z,1.90
2023-01-08T19:49:47.780Z,2.00
2023-01-08T19:52:16.277Z,2.38
2023-01-08T19:54:45.132Z,2.20
2023-01-08T19:57:13.708Z,1.80
2023-01-08T19:59:42.144Z,1.80
2023-01-08T20:02:12.588Z,1.75
2023-01-08T20:04:42.635Z,1.60
2023-01-08T20:07:11.098Z,1.70
2023-01-08T20:09:39.499Z,1.70
2023-01-08T20:12:08.227Z,1.30
2023-01-08T20:14:36.509Z,1.48
2023-01-08T20:17:05.175Z,1.42
2023-01-08T20:19:34.821Z,1.55
2023-01-08T20:22:03.068Z,1.30
2023-01-08T20:24:31.498Z,1.30
2023-01-08T20:26:59.749Z,1.40
2023-01-08T20:29:28.923Z,1.30
2023-01-08T20:31:59.472Z,1.40
2023-01-08T20:34:28.253Z,1.33
2023-01-08T20:36:57.974Z,1.00
2023-01-08T20:39:26.431Z,1.30
2023-01-08T20:42:03.986Z,0.90
2023-01-08T20:44:33.119Z,1.10
2023-01-08T20:47:02.147Z,1.00
2023-01-08T20:49:30.732Z,1.00
2023-01-08T20:52:00.823Z,1.75
2023-01-08T20:54:31.530Z,1.20
2023-01-08T20:57:00.917Z,1.10
2023-01-08T20:59:29.599Z,1.00
2023-01-08T21:01:58.005Z,1.30
2023-01-08T21:04:26.313Z,0.90
2023-01-08T21:06:54.661Z,0.80
2023-01-08T21:09:24.553Z,1.52
2023-01-08T21:11:52.757Z,1.10
2023-01-08T21:14:20.950Z,1.00
2023-01-08T21:16:49.215Z,1.40
2023-01-08T21:19:17.395Z,1.20
2023-01-08T21:21:45.811Z,1.40
2023-01-08T21:24:15.226Z,1.37
2023-01-08T21:26:46.221Z,1.83
2023-01-08T21:29:14.764Z,1.60
2023-01-08T21:31:43.352Z,1.10
2023-01-08T21:34:11.807Z,1.20
2023-01-08T21:36:40.189Z,0.82
2023-01-08T21:39:08.684Z,1.00
2023-01-08T21:41:54.560Z,0.93
2023-01-08T21:44:44.085Z,1.00
2023-01-08T21:47:14.407Z,0.90
2023-01-08T21:49:42.669Z,1.30
2023-01-08T21:52:28.281Z,1.05
2023-01-08T21:54:58.166Z,0.83
2023-01-08T21:57:27.987Z,0.80
2023-01-08T21:59:57.750Z,1.00
2023-01-08T22:02:26.468Z,1.40
2023-01-08T22:04:56.512Z,1.20
2023-01-08T22:07:25.491Z,1.40
2023-01-08T22:09:53.951Z,0.90
2023-01-08T22:12:23.795Z,0.90
2023-01-08T22:14:53.520Z,0.95
2023-01-08T22:17:24.734Z,1.00
2023-01-08T22:19:53.570Z,1.00
2023-01-08T22:22:22.026Z,0.80
2023-01-08T22:24:51.726Z,1.30
2023-01-08T22:27:20.264Z,1.20
2023-01-08T22:29:48.582Z,0.80
2023-01-08T22:32:16.859Z,1.10
2023-01-08T22:34:46.565Z,1.00
2023-01-08T22:37:16.849Z,1.00
2023-01-08T22:39:46.292Z,0.90
2023-01-08T22:42:14.531Z,0.90
2023-01-08T22:44:42.817Z,1.00
2023-01-08T22:47:11.137Z,0.80
2023-01-08T22:49:39.905Z,0.60
2023-01-08T22:52:10.232Z,1.00
2023-01-08T22:54:39.015Z,0.90
2023-01-08T22:57:07.634Z,0.80
2023-01-08T22:59:36.203Z,1.00
2023-01-08T23:02:04.396Z,1.00
2023-01-08T23:04:32.836Z,0.90
2023-01-08T23:07:01.057Z,1.20
2023-01-08T23:09:30.607Z,0.90
2023-01-08T23:11:58.852Z,0.70
2023-01-08T23:14:27.121Z,0.90
2023-01-08T23:16:55.313Z,0.98
2023-01-08T23:19:23.485Z,0.90
2023-01-08T23:21:51.709Z,1.00
2023-01-08T23:24:19.912Z,0.90
2023-01-08T23:26:49.563Z,0.77
2023-01-08T23:29:17.800Z,0.80
2023-01-08T23:31:46.120Z,0.90
2023-01-08T23:34:14.414Z,0.70
2023-01-08T23:36:43.016Z,1.00
2023-01-08T23:39:11.665Z,0.80
2023-01-08T23:41:39.961Z,1.00
2023-01-08T23:44:12.185Z,0.93
2023-01-08T23:46:40.423Z,0.80
2023-01-08T23:49:08.788Z,1.10
2023-01-08T23:51:37.145Z,0.80
2023-01-08T23:54:05.480Z,1.05
2023-01-08T23:56:33.799Z,1.08
2023-01-08T23:59:02.380Z,0.80
